sensor_id;sensor_type;location;lat;lon;timestamp;temperature;humidity
2100;DHT22;1055;48.854;9.302;2023-02-01T00:00:10;4.30;99.90
2100;DHT22;1055;48.854;9.302;2023-02-01T00:02:36;4.30;99.90
2100;DHT22;1055;48.854;9.302;2023-02-01T00:05:05;4.30;99.90
2100;DHT22;1055;48.854;9.302;2023-02-01T00:07:31;4.20;99.90
2100;DHT22;1055;48.854;9.302;2023-02-01T00:09:57;4.30;99.90
2100;DHT22;1055;48.854;9.302;2023-02-01T00:12:22;4.20;99.90
2100;DHT22;1055;48.854;9.302;2023-02-01T00:14:48;4.20;99.90
2100;DHT22;1055;48.854;9.302;2023-02-01T00:17:13;4.30;99.90
2100;DHT22;1055;48.854;9.302;2023-02-01T00:19:39;4.20;99.90
2100;DHT22;1055;48.854;9.302;2023-02-01T00:22:05;4.30;99.90
2100;DHT22;1055;48.854;9.302;2023-02-01T00:24:30;4.20;99.90
2100;DHT22;1055;48.854;9.302;2023-02-01T00:26:56;4.30;99.90
2100;DHT22;1055;48.854;9.302;2023-02-01T00:29:22;4.20;99.90
2100;DHT22;1055;48.854;9.302;2023-02-01T00:31:50;4.20;99.90
2100;DHT22;1055;48.854;9.302;2023-02-01T00:34:17;4.20;99.90
2100;DHT22;1055;48.854;9.302;2023-02-01T00:36:43;4.10;99.90
2100;DHT22;1055;48.854;9.302;2023-02-01T00:39:10;4.10;99.90
2100;DHT22;1055;48.854;9.302;2023-02-01T00:41:36;4.10;99.90
2100;DHT22;1055;48.854;9.302;2023-02-01T00:44:02;4.20;99.90
2100;DHT22;1055;48.854;9.302;2023-02-01T00:46:28;4.20;99.90
2100;DHT22;1055;48.854;9.302;2023-02-01T00:48:54;4.20;99.90
2100;DHT22;1055;48.854;9.302;2023-02-01T00:51:22;4.20;99.90
2100;DHT22;1055;48.854;9.302;2023-02-01T00:53:48;4.20;99.90
2100;DHT22;1055;48.854;9.302;2023-02-01T00:56:14;4.20;99.90
2100;DHT22;1055;48.854;9.302;2023-02-01T00:58:40;4.20;99.90
2100;DHT22;1055;48.854;9.302;2023-02-01T01:03:37;4.10;99.90
2100;DHT22;1055;48.854;9.302;2023-02-01T01:06:07;4.10;99.90
2100;DHT22;1055;48.854;9.302;2023-02-01T01:08:33;4.00;99.90
2100;DHT22;1055;48.854;9.302;2023-02-01T01:10:59;4.00;99.90
2100;DHT22;1055;48.854;9.302;2023-02-01T01:13:28;4.00;99.90
2100;DHT22;1055;48.854;9.302;2023-02-01T01:15:54;4.00;99.90
2100;DHT22;1055;48.854;9.302;2023-02-01T01:18:20;4.00;99.90
2100;DHT22;1055;48.854;9.302;2023-02-01T01:20:45;4.00;99.90
2100;DHT22;1055;48.854;9.302;2023-02-01T01:23:12;4.00;99.90
2100;DHT22;1055;48.854;9.302;2023-02-01T01:25:39;4.00;99.90
2100;DHT22;1055;48.854;9.302;2023-02-01T01:28:05;4.10;99.90
2100;DHT22;1055;48.854;9.302;2023-02-01T01:30:33;4.10;99.90
2100;DHT22;1055;48.854;9.302;2023-02-01T01:32:58;4.10;99.90
2100;DHT22;1055;48.854;9.302;2023-02-01T01:35:24;4.10;99.90
2100;DHT22;1055;48.854;9.302;2023-02-01T01:37:50;4.10;99.90
2100;DHT22;1055;48.854;9.302;2023-02-01T01:40:15;4.10;99.90
2100;DHT22;1055;48.854;9.302;2023-02-01T01:42:42;4.10;99.90
2100;DHT22;1055;48.854;9.302;2023-02-01T01:47:48;4.10;99.90
2100;DHT22;1055;48.854;9.302;2023-02-01T01:50:19;4.10;99.90
2100;DHT22;1055;48.854;9.302;2023-02-01T01:52:50;4.20;99.90
2100;DHT22;1055;48.854;9.302;2023-02-01T01:55:18;4.20;99.90
2100;DHT22;1055;48.854;9.302;2023-02-01T01:57:50;4.10;99.90
2100;DHT22;1055;48.854;9.302;2023-02-01T02:00:18;4.20;99.90
2100;DHT22;1055;48.854;9.302;2023-02-01T02:02:47;4.20;99.90
2100;DHT22;1055;48.854;9.302;2023-02-01T02:05:13;4.30;99.90
2100;DHT22;1055;48.854;9.302;2023-02-01T02:07:43;4.30;99.90
2100;DHT22;1055;48.854;9.302;2023-02-01T02:10:11;4.30;99.90
2100;DHT22;1055;48.854;9.302;2023-02-01T02:12:43;4.30;99.90
2100;DHT22;1055;48.854;9.302;2023-02-01T02:15:11;4.30;99.90
2100;DHT22;1055;48.854;9.302;2023-02-01T02:18:15;4.30;99.90
2100;DHT22;1055;48.854;9.302;2023-02-01T02:21:12;4.30;99.90
2100;DHT22;1055;48.854;9.302;2023-02-01T02:35:09;4.30;99.90
2100;DHT22;1055;48.854;9.302;2023-02-01T02:37:46;4.40;99.90
2100;DHT22;1055;48.854;9.302;2023-02-01T02:40:18;4.40;99.90
2100;DHT22;1055;48.854;9.302;2023-02-01T02:43:12;4.40;99.90
2100;DHT22;1055;48.854;9.302;2023-02-01T02:46:18;4.40;99.90
2100;DHT22;1055;48.854;9.302;2023-02-01T02:49:18;4.40;99.90
2100;DHT22;1055;48.854;9.302;2023-02-01T02:51:59;4.40;99.90
2100;DHT22;1055;48.854;9.302;2023-02-01T02:54:47;4.40;99.90
2100;DHT22;1055;48.854;9.302;2023-02-01T02:57:48;4.40;99.90
2100;DHT22;1055;48.854;9.302;2023-02-01T03:00:34;4.40;99.90
2100;DHT22;1055;48.854;9.302;2023-02-01T03:03:19;4.40;99.90
2100;DHT22;1055;48.854;9.302;2023-02-01T03:06:03;4.40;99.90
2100;DHT22;1055;48.854;9.302;2023-02-01T03:08:31;4.50;99.90
2100;DHT22;1055;48.854;9.302;2023-02-01T03:18:46;4.50;99.90
2100;DHT22;1055;48.854;9.302;2023-02-01T03:21:21;4.50;99.90
2100;DHT22;1055;48.854;9.302;2023-02-01T03:23:48;4.50;99.90
2100;DHT22;1055;48.854;9.302;2023-02-01T03:26:17;4.40;99.90
2100;DHT22;1055;48.854;9.302;2023-02-01T03:29:15;4.50;99.90
2100;DHT22;1055;48.854;9.302;2023-02-01T03:31:42;4.40;99.90
2100;DHT22;1055;48.854;9.302;2023-02-01T03:34:10;4.50;99.90
2100;DHT22;1055;48.854;9.302;2023-02-01T03:36:41;4.50;99.90
2100;DHT22;1055;48.854;9.302;2023-02-01T03:41:55;4.40;99.90
2100;DHT22;1055;48.854;9.302;2023-02-01T03:44:29;4.40;99.90
2100;DHT22;1055;48.854;9.302;2023-02-01T03:47:25;4.60;99.90
2100;DHT22;1055;48.854;9.302;2023-02-01T03:49:57;4.60;99.90
2100;DHT22;1055;48.854;9.302;2023-02-01T03:52:48;4.50;99.90
2100;DHT22;1055;48.854;9.302;2023-02-01T03:55:18;4.60;99.90
2100;DHT22;1055;48.854;9.302;2023-02-01T03:57:56;4.50;99.90
2100;DHT22;1055;48.854;9.302;2023-02-01T04:00:25;4.60;99.90
2100;DHT22;1055;48.854;9.302;2023-02-01T04:02:52;4.70;99.90
2100;DHT22;1055;48.854;9.302;2023-02-01T04:05:18;4.70;99.90
2100;DHT22;1055;48.854;9.302;2023-02-01T04:07:44;4.70;99.90
2100;DHT22;1055;48.854;9.302;2023-02-01T04:10:10;4.70;99.90
2100;DHT22;1055;48.854;9.302;2023-02-01T04:12:37;4.70;99.90
2100;DHT22;1055;48.854;9.302;2023-02-01T04:15:03;4.70;99.90
2100;DHT22;1055;48.854;9.302;2023-02-01T04:17:29;4.80;99.90
2100;DHT22;1055;48.854;9.302;2023-02-01T04:19:55;4.70;99.90
2100;DHT22;1055;48.854;9.302;2023-02-01T04:22:20;4.80;99.90
2100;DHT22;1055;48.854;9.302;2023-02-01T04:24:46;4.80;99.90
2100;DHT22;1055;48.854;9.302;2023-02-01T04:27:12;4.70;99.90
2100;DHT22;1055;48.854;9.302;2023-02-01T04:29:37;4.80;99.90
2100;DHT22;1055;48.854;9.302;2023-02-01T04:32:04;4.80;99.90
2100;DHT22;1055;48.854;9.302;2023-02-01T04:34:30;4.70;99.90
2100;DHT22;1055;48.854;9.302;2023-02-01T04:36:55;4.70;99.90
2100;DHT22;1055;48.854;9.302;2023-02-01T04:39:21;4.70;99.90
2100;DHT22;1055;48.854;9.302;2023-02-01T04:41:47;4.70;99.90
2100;DHT22;1055;48.854;9.302;2023-02-01T04:44:14;4.60;99.90
2100;DHT22;1055;48.854;9.302;2023-02-01T04:46:41;4.70;99.90
2100;DHT22;1055;48.854;9.302;2023-02-01T04:49:07;4.70;99.90
2100;DHT22;1055;48.854;9.302;2023-02-01T04:51:33;4.60;99.90
2100;DHT22;1055;48.854;9.302;2023-02-01T04:53:59;4.60;99.90
2100;DHT22;1055;48.854;9.302;2023-02-01T04:56:24;4.60;99.90
2100;DHT22;1055;48.854;9.302;2023-02-01T04:58:50;4.60;99.90
2100;DHT22;1055;48.854;9.302;2023-02-01T05:01:16;4.60;99.90
2100;DHT22;1055;48.854;9.302;2023-02-01T05:03:41;4.50;99.90
2100;DHT22;1055;48.854;9.302;2023-02-01T05:06:07;4.60;99.90
2100;DHT22;1055;48.854;9.302;2023-02-01T05:08:33;4.60;99.90
2100;DHT22;1055;48.854;9.302;2023-02-01T05:10:58;4.60;99.90
2100;DHT22;1055;48.854;9.302;2023-02-01T05:13:25;4.50;99.90
2100;DHT22;1055;48.854;9.302;2023-02-01T05:16:09;4.60;99.90
2100;DHT22;1055;48.854;9.302;2023-02-01T05:18:34;4.60;99.90
2100;DHT22;1055;48.854;9.302;2023-02-01T05:21:00;4.50;99.90
2100;DHT22;1055;48.854;9.302;2023-02-01T05:23:27;4.50;99.90
2100;DHT22;1055;48.854;9.302;2023-02-01T05:25:58;4.60;99.90
2100;DHT22;1055;48.854;9.302;2023-02-01T05:28:24;4.60;99.90
2100;DHT22;1055;48.854;9.302;2023-02-01T05:30:49;4.70;99.90
2100;DHT22;1055;48.854;9.302;2023-02-01T05:33:15;4.60;99.90
2100;DHT22;1055;48.854;9.302;2023-02-01T05:35:40;4.80;99.90
2100;DHT22;1055;48.854;9.302;2023-02-01T05:38:06;4.80;99.90
2100;DHT22;1055;48.854;9.302;2023-02-01T05:40:31;4.70;99.90
2100;DHT22;1055;48.854;9.302;2023-02-01T05:42:57;4.80;99.90
2100;DHT22;1055;48.854;9.302;2023-02-01T05:45:23;4.70;99.90
2100;DHT22;1055;48.854;9.302;2023-02-01T05:47:48;4.70;99.90
2100;DHT22;1055;48.854;9.302;2023-02-01T05:50:15;4.70;99.90
2100;DHT22;1055;48.854;9.302;2023-02-01T05:52:41;4.70;99.90
2100;DHT22;1055;48.854;9.302;2023-02-01T05:55:07;4.70;99.90
2100;DHT22;1055;48.854;9.302;2023-02-01T05:57:33;4.70;99.90
2100;DHT22;1055;48.854;9.302;2023-02-01T05:59:58;4.80;99.90
2100;DHT22;1055;48.854;9.302;2023-02-01T06:02:24;4.80;99.90
2100;DHT22;1055;48.854;9.302;2023-02-01T06:04:50;4.70;99.90
2100;DHT22;1055;48.854;9.302;2023-02-01T06:07:16;4.80;99.90
2100;DHT22;1055;48.854;9.302;2023-02-01T06:09:43;4.80;99.90
2100;DHT22;1055;48.854;9.302;2023-02-01T06:12:08;4.80;99.90
2100;DHT22;1055;48.854;9.302;2023-02-01T06:14:34;4.80;99.90
2100;DHT22;1055;48.854;9.302;2023-02-01T06:17:00;4.80;99.90
2100;DHT22;1055;48.854;9.302;2023-02-01T06:19:27;4.80;99.90
2100;DHT22;1055;48.854;9.302;2023-02-01T06:21:52;4.90;99.90
2100;DHT22;1055;48.854;9.302;2023-02-01T06:24:18;4.90;99.90
2100;DHT22;1055;48.854;9.302;2023-02-01T06:26:43;4.80;99.90
2100;DHT22;1055;48.854;9.302;2023-02-01T06:29:12;4.80;99.90
2100;DHT22;1055;48.854;9.302;2023-02-01T06:31:38;4.90;99.90
2100;DHT22;1055;48.854;9.302;2023-02-01T06:34:05;4.90;99.90
2100;DHT22;1055;48.854;9.302;2023-02-01T06:36:30;4.90;99.90
2100;DHT22;1055;48.854;9.302;2023-02-01T06:38:56;4.80;99.90
2100;DHT22;1055;48.854;9.302;2023-02-01T06:41:23;4.90;99.90
2100;DHT22;1055;48.854;9.302;2023-02-01T06:43:48;4.90;99.90
2100;DHT22;1055;48.854;9.302;2023-02-01T06:46:14;4.90;99.90
2100;DHT22;1055;48.854;9.302;2023-02-01T06:48:40;4.90;99.90
2100;DHT22;1055;48.854;9.302;2023-02-01T06:51:10;5.00;99.90
2100;DHT22;1055;48.854;9.302;2023-02-01T06:53:41;5.00;99.90
2100;DHT22;1055;48.854;9.302;2023-02-01T06:56:08;5.00;99.90
2100;DHT22;1055;48.854;9.302;2023-02-01T06:58:34;5.00;99.90
2100;DHT22;1055;48.854;9.302;2023-02-01T07:01:07;5.00;99.90
2100;DHT22;1055;48.854;9.302;2023-02-01T07:03:33;5.10;99.90
2100;DHT22;1055;48.854;9.302;2023-02-01T07:05:59;5.10;99.90
2100;DHT22;1055;48.854;9.302;2023-02-01T07:08:28;5.20;99.90
2100;DHT22;1055;48.854;9.302;2023-02-01T07:10:53;5.20;99.90
2100;DHT22;1055;48.854;9.302;2023-02-01T07:13:19;5.30;99.90
2100;DHT22;1055;48.854;9.302;2023-02-01T07:15:45;5.40;99.90
2100;DHT22;1055;48.854;9.302;2023-02-01T07:18:14;5.50;99.90
2100;DHT22;1055;48.854;9.302;2023-02-01T07:20:40;5.40;99.90
2100;DHT22;1055;48.854;9.302;2023-02-01T07:23:07;5.50;99.90
2100;DHT22;1055;48.854;9.302;2023-02-01T07:25:34;5.50;99.90
2100;DHT22;1055;48.854;9.302;2023-02-01T07:28:00;5.60;99.90
2100;DHT22;1055;48.854;9.302;2023-02-01T07:30:25;5.70;99.90
2100;DHT22;1055;48.854;9.302;2023-02-01T07:32:51;5.70;99.90
2100;DHT22;1055;48.854;9.302;2023-02-01T07:35:17;5.80;99.90
2100;DHT22;1055;48.854;9.302;2023-02-01T07:37:43;5.80;99.90
2100;DHT22;1055;48.854;9.302;2023-02-01T07:40:10;5.90;99.90
2100;DHT22;1055;48.854;9.302;2023-02-01T07:42:35;5.90;99.90
2100;DHT22;1055;48.854;9.302;2023-02-01T07:45:01;5.90;99.90
2100;DHT22;1055;48.854;9.302;2023-02-01T07:47:28;6.00;99.90
2100;DHT22;1055;48.854;9.302;2023-02-01T07:49:53;6.00;99.90
2100;DHT22;1055;48.854;9.302;2023-02-01T07:52:19;6.00;99.90
2100;DHT22;1055;48.854;9.302;2023-02-01T07:54:44;6.00;99.90
2100;DHT22;1055;48.854;9.302;2023-02-01T07:57:10;6.00;99.90
2100;DHT22;1055;48.854;9.302;2023-02-01T07:59:37;6.10;99.90
2100;DHT22;1055;48.854;9.302;2023-02-01T08:02:22;6.10;99.90
2100;DHT22;1055;48.854;9.302;2023-02-01T08:04:48;6.10;99.90
2100;DHT22;1055;48.854;9.302;2023-02-01T08:07:14;6.10;99.90
2100;DHT22;1055;48.854;9.302;2023-02-01T08:09:40;6.20;99.90
2100;DHT22;1055;48.854;9.302;2023-02-01T08:12:05;6.20;99.90
2100;DHT22;1055;48.854;9.302;2023-02-01T08:14:31;6.20;99.90
2100;DHT22;1055;48.854;9.302;2023-02-01T08:16:57;6.10;99.90
2100;DHT22;1055;48.854;9.302;2023-02-01T08:19:22;6.10;99.90
2100;DHT22;1055;48.854;9.302;2023-02-01T08:21:48;6.00;99.90
2100;DHT22;1055;48.854;9.302;2023-02-01T08:24:14;6.20;99.90
2100;DHT22;1055;48.854;9.302;2023-02-01T08:26:40;6.20;99.90
2100;DHT22;1055;48.854;9.302;2023-02-01T08:29:07;6.10;99.90
2100;DHT22;1055;48.854;9.302;2023-02-01T08:31:33;6.20;99.90
2100;DHT22;1055;48.854;9.302;2023-02-01T08:34:01;6.30;99.90
2100;DHT22;1055;48.854;9.302;2023-02-01T08:36:30;6.30;99.90
2100;DHT22;1055;48.854;9.302;2023-02-01T08:38:56;6.30;99.90
2100;DHT22;1055;48.854;9.302;2023-02-01T08:41:24;6.40;99.90
2100;DHT22;1055;48.854;9.302;2023-02-01T08:43:51;6.40;99.90
2100;DHT22;1055;48.854;9.302;2023-02-01T08:46:18;6.40;99.90
2100;DHT22;1055;48.854;9.302;2023-02-01T08:48:45;6.40;99.90
2100;DHT22;1055;48.854;9.302;2023-02-01T08:51:13;6.50;99.90
2100;DHT22;1055;48.854;9.302;2023-02-01T08:53:39;6.60;99.90
2100;DHT22;1055;48.854;9.302;2023-02-01T08:56:10;6.40;99.90
2100;DHT22;1055;48.854;9.302;2023-02-01T08:58:36;6.40;99.90
2100;DHT22;1055;48.854;9.302;2023-02-01T09:01:04;6.50;99.90
2100;DHT22;1055;48.854;9.302;2023-02-01T09:03:30;6.50;99.90
2100;DHT22;1055;48.854;9.302;2023-02-01T09:06:06;6.60;99.90
2100;DHT22;1055;48.854;9.302;2023-02-01T09:08:33;6.60;99.90
2100;DHT22;1055;48.854;9.302;2023-02-01T09:11:06;6.60;99.90
2100;DHT22;1055;48.854;9.302;2023-02-01T09:13:33;6.60;99.90
2100;DHT22;1055;48.854;9.302;2023-02-01T09:16:02;6.60;99.90
2100;DHT22;1055;48.854;9.302;2023-02-01T09:18:28;6.60;99.90
2100;DHT22;1055;48.854;9.302;2023-02-01T09:20:54;6.60;99.90
2100;DHT22;1055;48.854;9.302;2023-02-01T09:23:19;6.80;99.90
2100;DHT22;1055;48.854;9.302;2023-02-01T09:25:46;6.60;99.90
2100;DHT22;1055;48.854;9.302;2023-02-01T09:28:12;6.30;99.90
2100;DHT22;1055;48.854;9.302;2023-02-01T09:30:37;6.20;99.90
2100;DHT22;1055;48.854;9.302;2023-02-01T09:33:04;6.10;99.90
2100;DHT22;1055;48.854;9.302;2023-02-01T09:35:29;6.10;99.90
2100;DHT22;1055;48.854;9.302;2023-02-01T09:37:55;6.10;99.90
2100;DHT22;1055;48.854;9.302;2023-02-01T09:40:21;6.10;99.90
2100;DHT22;1055;48.854;9.302;2023-02-01T09:43:21;6.10;99.90
2100;DHT22;1055;48.854;9.302;2023-02-01T09:46:06;6.20;99.90
2100;DHT22;1055;48.854;9.302;2023-02-01T09:48:38;6.20;99.90
2100;DHT22;1055;48.854;9.302;2023-02-01T09:51:16;6.20;99.90
2100;DHT22;1055;48.854;9.302;2023-02-01T09:53:48;6.20;99.90
2100;DHT22;1055;48.854;9.302;2023-02-01T09:56:29;6.30;99.90
2100;DHT22;1055;48.854;9.302;2023-02-01T09:59:04;6.30;99.90
2100;DHT22;1055;48.854;9.302;2023-02-01T10:01:34;6.30;99.90
2100;DHT22;1055;48.854;9.302;2023-02-01T10:04:19;6.30;99.90
2100;DHT22;1055;48.854;9.302;2023-02-01T10:12:22;6.40;99.90
2100;DHT22;1055;48.854;9.302;2023-02-01T10:23:45;6.50;99.90
2100;DHT22;1055;48.854;9.302;2023-02-01T10:26:24;6.50;99.90
2100;DHT22;1055;48.854;9.302;2023-02-01T10:28:52;6.50;99.90
2100;DHT22;1055;48.854;9.302;2023-02-01T10:31:22;6.60;99.90
2100;DHT22;1055;48.854;9.302;2023-02-01T10:33:56;6.60;99.90
2100;DHT22;1055;48.854;9.302;2023-02-01T10:36:29;6.60;99.90
2100;DHT22;1055;48.854;9.302;2023-02-01T10:38:58;6.70;99.90
2100;DHT22;1055;48.854;9.302;2023-02-01T10:41:33;6.90;99.90
2100;DHT22;1055;48.854;9.302;2023-02-01T10:44:01;6.70;99.90
2100;DHT22;1055;48.854;9.302;2023-02-01T10:46:29;6.70;99.90
2100;DHT22;1055;48.854;9.302;2023-02-01T10:48:55;6.80;99.90
2100;DHT22;1055;48.854;9.302;2023-02-01T10:52:12;6.60;99.90
2100;DHT22;1055;48.854;9.302;2023-02-01T10:54:37;6.60;99.90
2100;DHT22;1055;48.854;9.302;2023-02-01T10:57:25;6.60;99.90
2100;DHT22;1055;48.854;9.302;2023-02-01T10:59:53;6.70;99.90
2100;DHT22;1055;48.854;9.302;2023-02-01T11:02:26;6.70;99.90
2100;DHT22;1055;48.854;9.302;2023-02-01T11:05:13;6.70;99.90
2100;DHT22;1055;48.854;9.302;2023-02-01T11:07:48;6.70;99.90
2100;DHT22;1055;48.854;9.302;2023-02-01T11:10:43;6.60;99.90
2100;DHT22;1055;48.854;9.302;2023-02-01T11:13:15;6.60;99.90
2100;DHT22;1055;48.854;9.302;2023-02-01T11:15:45;6.60;99.90
2100;DHT22;1055;48.854;9.302;2023-02-01T11:18:20;6.70;99.90
2100;DHT22;1055;48.854;9.302;2023-02-01T11:20:52;6.70;99.90
2100;DHT22;1055;48.854;9.302;2023-02-01T11:23:23;6.70;99.90
2100;DHT22;1055;48.854;9.302;2023-02-01T11:26:00;6.70;99.90
2100;DHT22;1055;48.854;9.302;2023-02-01T11:28:31;6.60;99.90
2100;DHT22;1055;48.854;9.302;2023-02-01T11:31:03;6.70;99.90
2100;DHT22;1055;48.854;9.302;2023-02-01T11:33:33;6.60;99.90
2100;DHT22;1055;48.854;9.302;2023-02-01T11:36:07;6.80;99.90
2100;DHT22;1055;48.854;9.302;2023-02-01T11:38:34;6.70;99.90
2100;DHT22;1055;48.854;9.302;2023-02-01T11:47:31;6.60;99.90
2100;DHT22;1055;48.854;9.302;2023-02-01T11:50:14;6.60;99.90
2100;DHT22;1055;48.854;9.302;2023-02-01T12:00:49;6.70;99.90
2100;DHT22;1055;48.854;9.302;2023-02-01T12:03:27;6.70;99.90
2100;DHT22;1055;48.854;9.302;2023-02-01T12:09:09;6.70;99.90
2100;DHT22;1055;48.854;9.302;2023-02-01T12:14:49;6.80;99.90
2100;DHT22;1055;48.854;9.302;2023-02-01T12:32:00;6.70;99.90
2100;DHT22;1055;48.854;9.302;2023-02-01T12:38:06;6.80;99.90
2100;DHT22;1055;48.854;9.302;2023-02-01T12:43:51;6.70;99.90
2100;DHT22;1055;48.854;9.302;2023-02-01T12:46:38;6.70;99.90
2100;DHT22;1055;48.854;9.302;2023-02-01T12:51:48;6.70;99.90
2100;DHT22;1055;48.854;9.302;2023-02-01T12:54:30;6.60;99.90
2100;DHT22;1055;48.854;9.302;2023-02-01T12:57:04;6.40;99.90
2100;DHT22;1055;48.854;9.302;2023-02-01T12:59:38;6.40;99.90
2100;DHT22;1055;48.854;9.302;2023-02-01T13:02:22;6.40;99.90
2100;DHT22;1055;48.854;9.302;2023-02-01T13:05:04;6.40;99.90
2100;DHT22;1055;48.854;9.302;2023-02-01T13:10:33;6.50;99.90
2100;DHT22;1055;48.854;9.302;2023-02-01T13:18:27;6.40;99.90
2100;DHT22;1055;48.854;9.302;2023-02-01T13:21:17;6.30;99.90
2100;DHT22;1055;48.854;9.302;2023-02-01T13:23:46;6.30;99.90
2100;DHT22;1055;48.854;9.302;2023-02-01T13:26:13;6.30;99.90
2100;DHT22;1055;48.854;9.302;2023-02-01T13:28:58;6.30;99.90
2100;DHT22;1055;48.854;9.302;2023-02-01T13:45:46;6.40;99.90
2100;DHT22;1055;48.854;9.302;2023-02-01T13:48:29;6.40;99.90
2100;DHT22;1055;48.854;9.302;2023-02-01T13:50:58;6.40;99.90
2100;DHT22;1055;48.854;9.302;2023-02-01T13:53:33;6.40;99.90
2100;DHT22;1055;48.854;9.302;2023-02-01T13:56:06;6.40;99.90
2100;DHT22;1055;48.854;9.302;2023-02-01T13:58:36;6.40;99.90
2100;DHT22;1055;48.854;9.302;2023-02-01T14:04:04;6.40;99.90
2100;DHT22;1055;48.854;9.302;2023-02-01T14:11:54;6.30;99.90
2100;DHT22;1055;48.854;9.302;2023-02-01T14:19:26;6.20;99.90
2100;DHT22;1055;48.854;9.302;2023-02-01T14:21:58;6.20;99.90
2100;DHT22;1055;48.854;9.302;2023-02-01T14:24:34;6.20;99.90
2100;DHT22;1055;48.854;9.302;2023-02-01T14:27:18;6.30;99.90
2100;DHT22;1055;48.854;9.302;2023-02-01T14:29:51;6.40;99.90
2100;DHT22;1055;48.854;9.302;2023-02-01T14:32:25;6.30;99.90
2100;DHT22;1055;48.854;9.302;2023-02-01T14:34:57;6.20;99.90
2100;DHT22;1055;48.854;9.302;2023-02-01T14:37:33;6.20;99.90
2100;DHT22;1055;48.854;9.302;2023-02-01T14:56:06;6.50;99.90
2100;DHT22;1055;48.854;9.302;2023-02-01T15:03:48;6.40;99.90
2100;DHT22;1055;48.854;9.302;2023-02-01T15:09:08;6.40;99.90
2100;DHT22;1055;48.854;9.302;2023-02-01T15:14:32;6.40;99.90
2100;DHT22;1055;48.854;9.302;2023-02-01T15:16:58;6.30;99.90
2100;DHT22;1055;48.854;9.302;2023-02-01T15:19:26;6.40;99.90
2100;DHT22;1055;48.854;9.302;2023-02-01T15:21:56;6.40;99.90
2100;DHT22;1055;48.854;9.302;2023-02-01T15:24:30;6.40;99.90
2100;DHT22;1055;48.854;9.302;2023-02-01T15:27:03;6.40;99.90
2100;DHT22;1055;48.854;9.302;2023-02-01T15:29:30;6.40;99.90
2100;DHT22;1055;48.854;9.302;2023-02-01T15:31:58;6.40;99.90
2100;DHT22;1055;48.854;9.302;2023-02-01T15:34:45;6.40;99.90
2100;DHT22;1055;48.854;9.302;2023-02-01T15:37:13;6.50;99.90
2100;DHT22;1055;48.854;9.302;2023-02-01T15:42:53;6.40;99.90
2100;DHT22;1055;48.854;9.302;2023-02-01T15:45:28;6.40;99.90
2100;DHT22;1055;48.854;9.302;2023-02-01T15:47:56;6.50;99.90
2100;DHT22;1055;48.854;9.302;2023-02-01T15:50:22;6.50;99.90
2100;DHT22;1055;48.854;9.302;2023-02-01T15:52:51;6.40;99.90
2100;DHT22;1055;48.854;9.302;2023-02-01T15:55:21;6.50;99.90
2100;DHT22;1055;48.854;9.302;2023-02-01T15:57:50;6.50;99.90
2100;DHT22;1055;48.854;9.302;2023-02-01T16:02:58;6.60;99.90
2100;DHT22;1055;48.854;9.302;2023-02-01T16:05:37;6.60;99.90
2100;DHT22;1055;48.854;9.302;2023-02-01T16:10:30;6.60;99.90
2100;DHT22;1055;48.854;9.302;2023-02-01T16:12:56;6.60;99.90
2100;DHT22;1055;48.854;9.302;2023-02-01T16:15:26;6.60;99.90
2100;DHT22;1055;48.854;9.302;2023-02-01T16:17:52;6.70;99.90
2100;DHT22;1055;48.854;9.302;2023-02-01T16:20:18;6.70;99.90
2100;DHT22;1055;48.854;9.302;2023-02-01T16:22:43;6.70;99.90
2100;DHT22;1055;48.854;9.302;2023-02-01T16:25:09;6.60;99.90
2100;DHT22;1055;48.854;9.302;2023-02-01T16:27:35;6.60;99.90
2100;DHT22;1055;48.854;9.302;2023-02-01T16:30:01;6.60;99.90
2100;DHT22;1055;48.854;9.302;2023-02-01T16:32:27;6.60;99.90
2100;DHT22;1055;48.854;9.302;2023-02-01T16:34:53;6.50;99.90
2100;DHT22;1055;48.854;9.302;2023-02-01T16:37:23;6.60;99.90
2100;DHT22;1055;48.854;9.302;2023-02-01T16:39:49;6.50;99.90
2100;DHT22;1055;48.854;9.302;2023-02-01T16:42:15;6.60;99.90
2100;DHT22;1055;48.854;9.302;2023-02-01T16:44:42;6.50;99.90
2100;DHT22;1055;48.854;9.302;2023-02-01T16:47:21;6.50;99.90
2100;DHT22;1055;48.854;9.302;2023-02-01T16:49:47;6.50;99.90
2100;DHT22;1055;48.854;9.302;2023-02-01T16:52:18;6.40;99.90
2100;DHT22;1055;48.854;9.302;2023-02-01T16:54:45;6.50;99.90
2100;DHT22;1055;48.854;9.302;2023-02-01T16:57:12;6.50;99.90
2100;DHT22;1055;48.854;9.302;2023-02-01T16:59:39;6.50;99.90
2100;DHT22;1055;48.854;9.302;2023-02-01T17:02:05;6.50;99.90
2100;DHT22;1055;48.854;9.302;2023-02-01T17:04:30;6.30;99.90
2100;DHT22;1055;48.854;9.302;2023-02-01T17:06:56;6.40;99.90
2100;DHT22;1055;48.854;9.302;2023-02-01T17:09:23;6.40;99.90
2100;DHT22;1055;48.854;9.302;2023-02-01T17:11:50;6.40;99.90
2100;DHT22;1055;48.854;9.302;2023-02-01T17:14:19;6.40;99.90
2100;DHT22;1055;48.854;9.302;2023-02-01T17:16:47;6.40;99.90
2100;DHT22;1055;48.854;9.302;2023-02-01T17:19:15;6.40;99.90
2100;DHT22;1055;48.854;9.302;2023-02-01T17:21:48;6.40;99.90
2100;DHT22;1055;48.854;9.302;2023-02-01T17:24:16;6.40;99.90
2100;DHT22;1055;48.854;9.302;2023-02-01T17:26:43;6.40;99.90
2100;DHT22;1055;48.854;9.302;2023-02-01T17:29:09;6.40;99.90
2100;DHT22;1055;48.854;9.302;2023-02-01T17:31:42;6.40;99.90
2100;DHT22;1055;48.854;9.302;2023-02-01T17:34:09;6.40;99.90
2100;DHT22;1055;48.854;9.302;2023-02-01T17:36:35;6.40;99.90
2100;DHT22;1055;48.854;9.302;2023-02-01T17:39:02;6.40;99.90
2100;DHT22;1055;48.854;9.302;2023-02-01T17:41:27;6.50;99.90
2100;DHT22;1055;48.854;9.302;2023-02-01T17:43:53;6.50;99.90
2100;DHT22;1055;48.854;9.302;2023-02-01T17:46:19;6.50;99.90
2100;DHT22;1055;48.854;9.302;2023-02-01T17:48:46;6.40;99.90
2100;DHT22;1055;48.854;9.302;2023-02-01T17:51:16;6.50;99.90
2100;DHT22;1055;48.854;9.302;2023-02-01T17:53:43;6.50;99.90
2100;DHT22;1055;48.854;9.302;2023-02-01T17:56:13;6.50;99.90
2100;DHT22;1055;48.854;9.302;2023-02-01T17:58:39;6.50;99.90
2100;DHT22;1055;48.854;9.302;2023-02-01T18:01:05;6.40;99.90
2100;DHT22;1055;48.854;9.302;2023-02-01T18:03:31;6.50;99.90
2100;DHT22;1055;48.854;9.302;2023-02-01T18:06:00;6.60;99.90
2100;DHT22;1055;48.854;9.302;2023-02-01T18:08:28;6.50;99.90
2100;DHT22;1055;48.854;9.302;2023-02-01T18:10:57;6.50;99.90
2100;DHT22;1055;48.854;9.302;2023-02-01T18:13:26;6.70;99.90
2100;DHT22;1055;48.854;9.302;2023-02-01T18:15:54;6.60;99.90
2100;DHT22;1055;48.854;9.302;2023-02-01T18:18:20;6.60;99.90
2100;DHT22;1055;48.854;9.302;2023-02-01T18:20:47;6.50;99.90
2100;DHT22;1055;48.854;9.302;2023-02-01T18:23:23;6.50;99.90
2100;DHT22;1055;48.854;9.302;2023-02-01T18:25:50;6.50;99.90
2100;DHT22;1055;48.854;9.302;2023-02-01T18:28:17;6.60;99.90
2100;DHT22;1055;48.854;9.302;2023-02-01T18:30:45;6.50;99.90
2100;DHT22;1055;48.854;9.302;2023-02-01T18:33:14;6.50;99.90
2100;DHT22;1055;48.854;9.302;2023-02-01T18:35:40;6.50;99.90
2100;DHT22;1055;48.854;9.302;2023-02-01T18:38:06;6.50;99.90
2100;DHT22;1055;48.854;9.302;2023-02-01T18:40:52;6.50;99.90
2100;DHT22;1055;48.854;9.302;2023-02-01T18:43:19;6.50;99.90
2100;DHT22;1055;48.854;9.302;2023-02-01T18:45:45;6.50;99.90
2100;DHT22;1055;48.854;9.302;2023-02-01T18:48:13;6.50;99.90
2100;DHT22;1055;48.854;9.302;2023-02-01T18:50:41;6.50;99.90
2100;DHT22;1055;48.854;9.302;2023-02-01T18:53:12;6.30;99.90
2100;DHT22;1055;48.854;9.302;2023-02-01T18:55:39;6.40;99.90
2100;DHT22;1055;48.854;9.302;2023-02-01T18:58:05;6.50;99.90
2100;DHT22;1055;48.854;9.302;2023-02-01T19:00:33;6.40;99.90
2100;DHT22;1055;48.854;9.302;2023-02-01T19:02:59;6.40;99.90
2100;DHT22;1055;48.854;9.302;2023-02-01T19:05:24;6.50;99.90
2100;DHT22;1055;48.854;9.302;2023-02-01T19:07:50;6.40;99.90
2100;DHT22;1055;48.854;9.302;2023-02-01T19:10:21;6.40;99.90